sensor_id;sensor_type;location;lat;lon;timestamp;pressure;altitude;pressure_sealevel;temperature;humidity
12987;BME280;58897;51.960;5.582;2024-02-21T00:01:40;101921.53;;;8.86;100.00
12987;BME280;58897;51.960;5.582;2024-02-21T00:04:07;101925.19;;;8.85;100.00
12987;BME280;58897;51.960;5.582;2024-02-21T00:06:33;101920.53;;;8.87;100.00
12987;BME280;58897;51.960;5.582;2024-02-21T00:09:00;101921.28;;;8.89;100.00
12987;BME280;58897;51.960;5.582;2024-02-21T00:11:27;101914.31;;;8.86;100.00
12987;BME280;58897;51.960;5.582;2024-02-21T00:13:54;101912.44;;;8.87;100.00
12987;BME280;58897;51.960;5.582;2024-02-21T00:16:21;101905.47;;;8.84;100.00
12987;BME280;58897;51.960;5.582;2024-02-21T00:18:48;101904.63;;;8.84;100.00
12987;BME280;58897;51.960;5.582;2024-02-21T00:21:15;101902.91;;;8.83;100.00
12987;BME280;58897;51.960;5.582;2024-02-21T00:23:45;101908.16;;;8.84;100.00
12987;BME280;58897;51.960;5.582;2024-02-21T00:26:16;101900.06;;;8.84;100.00
12987;BME280;58897;51.960;5.582;2024-02-21T00:28:43;101895.81;;;8.82;100.00
12987;BME280;58897;51.960;5.582;2024-02-21T00:31:10;101893.25;;;8.80;100.00
12987;BME280;58897;51.960;5.582;2024-02-21T00:33:37;101884.31;;;8.80;100.00
12987;BME280;58897;51.960;5.582;2024-02-21T00:36:04;101885.03;;;8.82;100.00
12987;BME280;58897;51.960;5.582;2024-02-21T00:38:30;101883.44;;;8.79;100.00
12987;BME280;58897;51.960;5.582;2024-02-21T00:40:57;101878.91;;;8.80;100.00
12987;BME280;58897;51.960;5.582;2024-02-21T00:43:24;101879.88;;;8.79;100.00
12987;BME280;58897;51.960;5.582;2024-02-21T00:45:51;101875.25;;;8.81;100.00
12987;BME280;58897;51.960;5.582;2024-02-21T00:48:17;101879.88;;;8.79;100.00
12987;BME280;58897;51.960;5.582;2024-02-21T00:50:44;101884.19;;;8.81;100.00
12987;BME280;58897;51.960;5.582;2024-02-21T00:53:10;101866.56;;;8.77;100.00
12987;BME280;58897;51.960;5.582;2024-02-21T00:55:37;101866.56;;;8.77;100.00
12987;BME280;58897;51.960;5.582;2024-02-21T00:58:04;101857.59;;;8.77;100.00
12987;BME280;58897;51.960;5.582;2024-02-21T01:00:30;101849.53;;;8.77;100.00
12987;BME280;58897;51.960;5.582;2024-02-21T01:02:57;101854.19;;;8.75;100.00
12987;BME280;58897;51.960;5.582;2024-02-21T01:05:23;101851.50;;;8.75;100.00
12987;BME280;58897;51.960;5.582;2024-02-21T01:07:50;101850.53;;;8.76;100.00
12987;BME280;58897;51.960;5.582;2024-02-21T01:10:17;101861.31;;;8.76;100.00
12987;BME280;58897;51.960;5.582;2024-02-21T01:12:43;101866.69;;;8.76;100.00
12987;BME280;58897;51.960;5.582;2024-02-21T01:15:10;101853.34;;;8.74;100.00
12987;BME280;58897;51.960;5.582;2024-02-21T01:17:38;101849.91;;;8.72;100.00
12987;BME280;58897;51.960;5.582;2024-02-21T01:20:07;101859.97;;;8.70;100.00
12987;BME280;58897;51.960;5.582;2024-02-21T01:22:34;101861.66;;;8.71;100.00
12987;BME280;58897;51.960;5.582;2024-02-21T01:25:01;101866.22;;;8.71;100.00
12987;BME280;58897;51.960;5.582;2024-02-21T01:27:27;101862.91;;;8.67;100.00
12987;BME280;58897;51.960;5.582;2024-02-21T01:29:54;101861.81;;;8.69;100.00
12987;BME280;58897;51.960;5.582;2024-02-21T01:32:21;101869.03;;;8.69;100.00
12987;BME280;58897;51.960;5.582;2024-02-21T01:34:51;101873.31;;;8.72;100.00
12987;BME280;58897;51.960;5.582;2024-02-21T01:37:18;101861.81;;;8.69;100.00
12987;BME280;58897;51.960;5.582;2024-02-21T01:39:44;101855.56;;;8.69;100.00
12987;BME280;58897;51.960;5.582;2024-02-21T01:42:11;101860.94;;;8.69;100.00
12987;BME280;58897;51.960;5.582;2024-02-21T01:44:37;101848.72;;;8.65;100.00
12987;BME280;58897;51.960;5.582;2024-02-21T01:47:05;101848.34;;;8.69;100.00
12987;BME280;58897;51.960;5.582;2024-02-21T01:49:31;101853.84;;;8.68;100.00
12987;BME280;58897;51.960;5.582;2024-02-21T01:51:58;101846.88;;;8.65;100.00
12987;BME280;58897;51.960;5.582;2024-02-21T01:54:25;101844.78;;;8.69;100.00
12987;BME280;58897;51.960;5.582;2024-02-21T01:56:55;101842.31;;;8.66;100.00
12987;BME280;58897;51.960;5.582;2024-02-21T01:59:21;101839.63;;;8.66;100.00
12987;BME280;58897;51.960;5.582;2024-02-21T02:01:50;101837.94;;;8.65;100.00
12987;BME280;58897;51.960;5.582;2024-02-21T02:04:19;101836.13;;;8.65;100.00
12987;BME280;58897;51.960;5.582;2024-02-21T02:06:46;101830.72;;;8.65;100.00
12987;BME280;58897;51.960;5.582;2024-02-21T02:09:13;101829.09;;;8.63;100.00
12987;BME280;58897;51.960;5.582;2024-02-21T02:11:39;101822.75;;;8.64;100.00
12987;BME280;58897;51.960;5.582;2024-02-21T02:14:06;101817.50;;;8.62;100.00
12987;BME280;58897;51.960;5.582;2024-02-21T02:16:32;101808.69;;;8.60;100.00
12987;BME280;58897;51.960;5.582;2024-02-21T02:18:59;101813.22;;;8.60;100.00
12987;BME280;58897;51.960;5.582;2024-02-21T02:21:29;101819.59;;;8.59;100.00
12987;BME280;58897;51.960;5.582;2024-02-21T02:23:56;101816.75;;;8.60;100.00
12987;BME280;58897;51.960;5.582;2024-02-21T02:26:23;101808.44;;;8.63;100.00
12987;BME280;58897;51.960;5.582;2024-02-21T02:28:50;101806.72;;;8.62;100.00
12987;BME280;58897;51.960;5.582;2024-02-21T02:31:16;101792.66;;;8.59;100.00
12987;BME280;58897;51.960;5.582;2024-02-21T02:33:43;101792.78;;;8.57;100.00
12987;BME280;58897;51.960;5.582;2024-02-21T02:36:11;101787.75;;;8.64;100.00
12987;BME280;58897;51.960;5.582;2024-02-21T02:38:37;101780.78;;;8.61;100.00
12987;BME280;58897;51.960;5.582;2024-02-21T02:41:04;101777.34;;;8.59;100.00
12987;BME280;58897;51.960;5.582;2024-02-21T02:43:30;101778.47;;;8.57;100.00
12987;BME280;58897;51.960;5.582;2024-02-21T02:45:58;101773.94;;;8.57;100.00
12987;BME280;58897;51.960;5.582;2024-02-21T02:48:24;101781.03;;;8.58;100.00
12987;BME280;58897;51.960;5.582;2024-02-21T02:50:51;101781.88;;;8.59;100.00
12987;BME280;58897;51.960;5.582;2024-02-21T02:53:18;101779.91;;;8.61;100.00
12987;BME280;58897;51.960;5.582;2024-02-21T02:55:44;101772.22;;;8.56;100.00
12987;BME280;58897;51.960;5.582;2024-02-21T02:58:11;101770.13;;;8.60;100.00
12987;BME280;58897;51.960;5.582;2024-02-21T03:00:38;101768.28;;;8.60;100.00
12987;BME280;58897;51.960;5.582;2024-02-21T03:03:06;101770.13;;;8.60;100.00
12987;BME280;58897;51.960;5.582;2024-02-21T03:05:32;101770.38;;;8.57;100.00
12987;BME280;58897;51.960;5.582;2024-02-21T03:07:59;101763.16;;;8.57;100.00
12987;BME280;58897;51.960;5.582;2024-02-21T03:10:26;101747.00;;;8.57;100.00
12987;BME280;58897;51.960;5.582;2024-02-21T03:12:53;101757.50;;;8.60;100.00
12987;BME280;58897;51.960;5.582;2024-02-21T03:15:19;101750.28;;;8.61;100.00
12987;BME280;58897;51.960;5.582;2024-02-21T03:17:46;101745.91;;;8.60;100.00
12987;BME280;58897;51.960;5.582;2024-02-21T03:20:13;101750.28;;;8.61;100.00
12987;BME280;58897;51.960;5.582;2024-02-21T03:22:40;101749.56;;;8.59;100.00
12987;BME280;58897;51.960;5.582;2024-02-21T03:25:08;101747.84;;;8.58;100.00
12987;BME280;58897;51.960;5.582;2024-02-21T03:27:36;101739.03;;;8.56;100.00
12987;BME280;58897;51.960;5.582;2024-02-21T03:30:03;101737.47;;;8.53;100.00
12987;BME280;58897;51.960;5.582;2024-02-21T03:32:31;101735.78;;;8.52;100.00
12987;BME280;58897;51.960;5.582;2024-02-21T03:34:57;101730.63;;;8.49;100.00
12987;BME280;58897;51.960;5.582;2024-02-21T03:37:24;101736.03;;;8.49;100.00
12987;BME280;58897;51.960;5.582;2024-02-21T03:39:50;101736.53;;;8.43;100.00
12987;BME280;58897;51.960;5.582;2024-02-21T03:42:17;101727.19;;;8.47;100.00
12987;BME280;58897;51.960;5.582;2024-02-21T03:44:44;101716.56;;;8.46;100.00
12987;BME280;58897;51.960;5.582;2024-02-21T03:47:10;101717.53;;;8.45;100.00
12987;BME280;58897;51.960;5.582;2024-02-21T03:49:38;101714.53;;;8.38;100.00
12987;BME280;58897;51.960;5.582;2024-02-21T03:52:05;101707.41;;;8.37;100.00
12987;BME280;58897;51.960;5.582;2024-02-21T03:54:32;101707.06;;;8.42;100.00
12987;BME280;58897;51.960;5.582;2024-02-21T03:56:58;101714.13;;;8.43;100.00
12987;BME280;58897;51.960;5.582;2024-02-21T03:59:25;101712.06;;;8.35;100.00
12987;BME280;58897;51.960;5.582;2024-02-21T04:01:52;101710.84;;;8.39;100.00
12987;BME280;58897;51.960;5.582;2024-02-21T04:04:20;101707.31;;;8.39;100.00
12987;BME280;58897;51.960;5.582;2024-02-21T04:06:48;101707.31;;;8.39;100.00
12987;BME280;58897;51.960;5.582;2024-02-21T04:09:14;101704.72;;;8.37;100.00
12987;BME280;58897;51.960;5.582;2024-02-21T04:11:41;101711.34;;;8.33;100.00
12987;BME280;58897;51.960;5.582;2024-02-21T04:14:08;101715.88;;;8.33;100.00
12987;BME280;58897;51.960;5.582;2024-02-21T04:16:35;101713.19;;;8.33;100.00
12987;BME280;58897;51.960;5.582;2024-02-21T04:19:01;101708.53;;;8.35;100.00
12987;BME280;58897;51.960;5.582;2024-02-21T04:21:31;101698.28;;;8.29;100.00
12987;BME280;58897;51.960;5.582;2024-02-21T04:23:57;101702.66;;;8.30;100.00
12987;BME280;58897;51.960;5.582;2024-02-21T04:26:24;101700.13;;;8.28;100.00
12987;BME280;58897;51.960;5.582;2024-02-21T04:28:51;101691.19;;;8.28;100.00
12987;BME280;58897;51.960;5.582;2024-02-21T04:31:18;101691.19;;;8.28;100.00
12987;BME280;58897;51.960;5.582;2024-02-21T04:33:44;101691.19;;;8.28;100.00
12987;BME280;58897;51.960;5.582;2024-02-21T04:36:11;101694.72;;;8.28;100.00
12987;BME280;58897;51.960;5.582;2024-02-21T04:38:38;101686.78;;;8.27;100.00
12987;BME280;58897;51.960;5.582;2024-02-21T04:41:05;101689.56;;;8.25;100.00
12987;BME280;58897;51.960;5.582;2024-02-21T04:43:32;101692.75;;;8.30;100.00
12987;BME280;58897;51.960;5.582;2024-02-21T04:45:59;101685.53;;;8.31;100.00
12987;BME280;58897;51.960;5.582;2024-02-21T04:48:26;101686.88;;;8.25;100.00
12987;BME280;58897;51.960;5.582;2024-02-21T04:50:53;101679.44;;;8.29;100.00
12987;BME280;58897;51.960;5.582;2024-02-21T04:53:19;101676.25;;;8.24;100.00
12987;BME280;58897;51.960;5.582;2024-02-21T04:55:46;101661.94;;;8.23;100.00
12987;BME280;58897;51.960;5.582;2024-02-21T04:58:13;101657.78;;;8.19;100.00
12987;BME280;58897;51.960;5.582;2024-02-21T05:00:40;101655.84;;;8.21;100.00
12987;BME280;58897;51.960;5.582;2024-02-21T05:03:06;101653.97;;;8.22;100.00
12987;BME280;58897;51.960;5.582;2024-02-21T05:05:33;101646.16;;;8.19;100.00
12987;BME280;58897;51.960;5.582;2024-02-21T05:08:00;101648.97;;;8.17;100.00
12987;BME280;58897;51.960;5.582;2024-02-21T05:10:26;101634.66;;;8.17;100.00
12987;BME280;58897;51.960;5.582;2024-02-21T05:12:53;101632.81;;;8.17;100.00
12987;BME280;58897;51.960;5.582;2024-02-21T05:15:20;101638.59;;;8.13;100.00
12987;BME280;58897;51.960;5.582;2024-02-21T05:17:46;101637.75;;;8.12;100.00
12987;BME280;58897;51.960;5.582;2024-02-21T05:20:13;101632.38;;;8.12;100.00
12987;BME280;58897;51.960;5.582;2024-02-21T05:22:40;101637.75;;;8.12;100.00
12987;BME280;58897;51.960;5.582;2024-02-21T05:25:07;101635.91;;;8.13;100.00
12987;BME280;58897;51.960;5.582;2024-02-21T05:27:33;101621.47;;;8.14;100.00
12987;BME280;58897;51.960;5.582;2024-02-21T05:30:03;101625.88;;;8.15;100.00
12987;BME280;58897;51.960;5.582;2024-02-21T05:32:29;101613.06;;;8.07;100.00
12987;BME280;58897;51.960;5.582;2024-02-21T05:34:56;101615.59;;;8.08;100.00
12987;BME280;58897;51.960;5.582;2024-02-21T05:37:24;101613.06;;;8.07;100.00
12987;BME280;58897;51.960;5.582;2024-02-21T05:39:51;101610.16;;;7.99;100.00
12987;BME280;58897;51.960;5.582;2024-02-21T05:42:17;101609.91;;;8.02;100.00
12987;BME280;58897;51.960;5.582;2024-02-21T05:44:44;101604.53;;;8.02;100.00
12987;BME280;58897;51.960;5.582;2024-02-21T05:47:10;101589.81;;;8.06;100.00
12987;BME280;58897;51.960;5.582;2024-02-21T05:49:39;101592.25;;;8.09;100.00
12987;BME280;58897;51.960;5.582;2024-02-21T05:52:06;101589.22;;;8.02;100.00
12987;BME280;58897;51.960;5.582;2024-02-21T05:54:32;101575.03;;;8.00;100.00
12987;BME280;58897;51.960;5.582;2024-02-21T05:56:59;101585.69;;;8.02;100.00
12987;BME280;58897;51.960;5.582;2024-02-21T05:59:26;101578.72;;;7.99;100.00
12987;BME280;58897;51.960;5.582;2024-02-21T06:01:56;101577.00;;;7.98;100.00
12987;BME280;58897;51.960;5.582;2024-02-21T06:04:24;101578.72;;;7.99;100.00
12987;BME280;58897;51.960;5.582;2024-02-21T06:06:51;101576.91;;;8.00;100.00
12987;BME280;58897;51.960;5.582;2024-02-21T06:09:17;101569.78;;;7.99;100.00
12987;BME280;58897;51.960;5.582;2024-02-21T06:11:44;101573.19;;;8.01;100.00
12987;BME280;58897;51.960;5.582;2024-02-21T06:14:12;101568.81;;;8.00;100.00
12987;BME280;58897;51.960;5.582;2024-02-21T06:16:39;101576.91;;;8.00;100.00
12987;BME280;58897;51.960;5.582;2024-02-21T06:19:06;101566.25;;;7.98;100.00
12987;BME280;58897;51.960;5.582;2024-02-21T06:21:36;101566.84;;;8.02;100.00
12987;BME280;58897;51.960;5.582;2024-02-21T06:24:03;101558.06;;;8.00;100.00
12987;BME280;58897;51.960;5.582;2024-02-21T06:26:30;101567.25;;;7.97;100.00
12987;BME280;58897;51.960;5.582;2024-02-21T06:28:57;101564.88;;;8.04;100.00
12987;BME280;58897;51.960;5.582;2024-02-21T06:31:24;101563.44;;;8.00;100.00
12987;BME280;58897;51.960;5.582;2024-02-21T06:33:51;101560.75;;;8.00;100.00
12987;BME280;58897;51.960;5.582;2024-02-21T06:36:17;101561.56;;;8.00;100.00
12987;BME280;58897;51.960;5.582;2024-02-21T06:38:44;101567.72;;;8.02;100.00
12987;BME280;58897;51.960;5.582;2024-02-21T06:41:19;101573.09;;;8.02;100.00
12987;BME280;58897;51.960;5.582;2024-02-21T06:43:46;101571.22;;;8.03;100.00
12987;BME280;58897;51.960;5.582;2024-02-21T06:46:26;101566.19;;;8.09;100.00
12987;BME280;58897;51.960;5.582;2024-02-21T06:48:55;101558.38;;;8.06;100.00
12987;BME280;58897;51.960;5.582;2024-02-21T06:51:27;101554.84;;;8.06;100.00
12987;BME280;58897;51.960;5.582;2024-02-21T06:53:54;101559.09;;;8.08;100.00
12987;BME280;58897;51.960;5.582;2024-02-21T06:56:23;101559.09;;;8.08;100.00
12987;BME280;58897;51.960;5.582;2024-02-21T06:58:55;101557.97;;;8.11;100.00
12987;BME280;58897;51.960;5.582;2024-02-21T07:01:23;101557.88;;;8.13;100.00
12987;BME280;58897;51.960;5.582;2024-02-21T07:03:50;101547.34;;;8.09;100.00
12987;BME280;58897;51.960;5.582;2024-02-21T07:06:16;101549.91;;;8.11;100.00
12987;BME280;58897;51.960;5.582;2024-02-21T07:08:43;101543.41;;;8.14;100.00
12987;BME280;58897;51.960;5.582;2024-02-21T07:11:10;101534.63;;;8.12;100.00
12987;BME280;58897;51.960;5.582;2024-02-21T07:13:37;101542.69;;;8.12;100.00
12987;BME280;58897;51.960;5.582;2024-02-21T07:16:04;101532.78;;;8.12;100.00
12987;BME280;58897;51.960;5.582;2024-02-21T07:18:31;101534.06;;;8.08;100.00
12987;BME280;58897;51.960;5.582;2024-02-21T07:20:58;101535.03;;;8.07;100.00
12987;BME280;58897;51.960;5.582;2024-02-21T07:23:25;101522.28;;;8.09;100.00
12987;BME280;58897;51.960;5.582;2024-02-21T07:25:51;101532.19;;;8.08;100.00
12987;BME280;58897;51.960;5.582;2024-02-21T07:28:18;101520.00;;;8.04;100.00
12987;BME280;58897;51.960;5.582;2024-02-21T07:30:45;101522.69;;;8.04;100.00
12987;BME280;58897;51.960;5.582;2024-02-21T07:33:11;101525.38;;;8.04;100.00
12987;BME280;58897;51.960;5.582;2024-02-21T07:35:38;101516.91;;;8.09;100.00
12987;BME280;58897;51.960;5.582;2024-02-21T07:38:07;101512.53;;;8.08;100.00
12987;BME280;58897;51.960;5.582;2024-02-21T07:40:39;101501.22;;;8.14;100.00
12987;BME280;58897;51.960;5.582;2024-02-21T07:43:06;101502.06;;;8.15;100.00
12987;BME280;58897;51.960;5.582;2024-02-21T07:45:32;101497.66;;;8.14;100.00
12987;BME280;58897;51.960;5.582;2024-02-21T07:47:59;101494.16;;;8.13;100.00
12987;BME280;58897;51.960;5.582;2024-02-21T07:50:26;101485.06;;;8.14;100.00
12987;BME280;58897;51.960;5.582;2024-02-21T07:52:53;101485.41;;;8.21;100.00
12987;BME280;58897;51.960;5.582;2024-02-21T07:55:20;101474.03;;;8.17;100.00
12987;BME280;58897;51.960;5.582;2024-02-21T07:57:46;101469.19;;;8.11;100.00
12987;BME280;58897;51.960;5.582;2024-02-21T08:00:13;101465.00;;;8.18;100.00
12987;BME280;58897;51.960;5.582;2024-02-21T08:02:48;101464.13;;;8.18;100.00
12987;BME280;58897;51.960;5.582;2024-02-21T08:05:15;101455.66;;;8.22;100.00
12987;BME280;58897;51.960;5.582;2024-02-21T08:07:42;101453.09;;;8.21;100.00
12987;BME280;58897;51.960;5.582;2024-02-21T08:10:08;101453.22;;;8.19;100.00
12987;BME280;58897;51.960;5.582;2024-02-21T08:12:35;101459.59;;;8.18;100.00
12987;BME280;58897;51.960;5.582;2024-02-21T08:15:02;101460.66;;;8.27;100.00
12987;BME280;58897;51.960;5.582;2024-02-21T08:17:32;101455.16;;;8.28;100.00
12987;BME280;58897;51.960;5.582;2024-02-21T08:19:59;101438.88;;;8.30;100.00
12987;BME280;58897;51.960;5.582;2024-02-21T08:22:26;101443.13;;;8.32;100.00
12987;BME280;58897;51.960;5.582;2024-02-21T08:24:53;101435.50;;;8.37;100.00
12987;BME280;58897;51.960;5.582;2024-02-21T08:27:20;101434.78;;;8.35;100.00
12987;BME280;58897;51.960;5.582;2024-02-21T08:29:46;101443.56;;;8.37;100.00
12987;BME280;58897;51.960;5.582;2024-02-21T08:32:13;101434.53;;;8.38;100.00
12987;BME280;58897;51.960;5.582;2024-02-21T08:34:40;101435.50;;;8.37;100.00
12987;BME280;58897;51.960;5.582;2024-02-21T08:37:06;101436.09;;;8.41;100.00
12987;BME280;58897;51.960;5.582;2024-02-21T08:39:34;101432.25;;;8.34;100.00
12987;BME280;58897;51.960;5.582;2024-02-21T08:42:01;101424.03;;;8.35;100.00
12987;BME280;58897;51.960;5.582;2024-02-21T08:44:28;101419.34;;;8.37;100.00
12987;BME280;58897;51.960;5.582;2024-02-21T08:46:55;101423.75;;;8.38;100.00
12987;BME280;58897;51.960;5.582;2024-02-21T08:49:22;101418.09;;;8.41;100.00
12987;BME280;58897;51.960;5.582;2024-02-21T08:51:56;101406.75;;;8.38;100.00
12987;BME280;58897;51.960;5.582;2024-02-21T08:54:23;101397.97;;;8.36;100.00
12987;BME280;58897;51.960;5.582;2024-02-21T08:56:49;101390.84;;;8.35;100.00
12987;BME280;58897;51.960;5.582;2024-02-21T08:59:16;101394.84;;;8.40;100.00
12987;BME280;58897;51.960;5.582;2024-02-21T09:01:43;101394.00;;;8.40;100.00
12987;BME280;58897;51.960;5.582;2024-02-21T09:04:10;101391.75;;;8.45;100.00
12987;BME280;58897;51.960;5.582;2024-02-21T09:06:37;101386.78;;;8.50;100.00
12987;BME280;58897;51.960;5.582;2024-02-21T09:09:08;101384.41;;;8.56;100.00
12987;BME280;58897;51.960;5.582;2024-02-21T09:11:36;101371.53;;;8.60;100.00
12987;BME280;58897;51.960;5.582;2024-02-21T09:14:03;101386.00;;;8.59;100.00
12987;BME280;58897;51.960;5.582;2024-02-21T09:16:31;101376.78;;;8.61;100.00
12987;BME280;58897;51.960;5.582;2024-02-21T09:18:59;101369.41;;;8.63;100.00
12987;BME280;58897;51.960;5.582;2024-02-21T09:21:27;101374.25;;;8.69;100.00
12987;BME280;58897;51.960;5.582;2024-02-21T09:23:54;101378.66;;;8.71;100.00
12987;BME280;58897;51.960;5.582;2024-02-21T09:26:25;101377.09;;;8.68;100.00
12987;BME280;58897;51.960;5.582;2024-02-21T09:28:51;101363.31;;;8.71;100.00
12987;BME280;58897;51.960;5.582;2024-02-21T09:31:18;101362.34;;;8.72;100.00
12987;BME280;58897;51.960;5.582;2024-02-21T09:33:46;101354.41;;;8.71;100.00
12987;BME280;58897;51.960;5.582;2024-02-21T09:36:12;101351.59;;;8.82;100.00
12987;BME280;58897;51.960;5.582;2024-02-21T09:38:40;101345.38;;;8.81;100.00
12987;BME280;58897;51.960;5.582;2024-02-21T09:41:14;101347.19;;;8.81;100.00
12987;BME280;58897;51.960;5.582;2024-02-21T09:43:44;101341.53;;;8.84;100.00
12987;BME280;58897;51.960;5.582;2024-02-21T09:46:18;101324.94;;;8.88;100.00
12987;BME280;58897;51.960;5.582;2024-02-21T09:51:23;101321.13;;;8.91;100.00
12987;BME280;58897;51.960;5.582;2024-02-21T09:53:52;101316.28;;;8.94;100.00
12987;BME280;58897;51.960;5.582;2024-02-21T09:56:32;101313.03;;;8.91;100.00
12987;BME280;58897;51.960;5.582;2024-02-21T09:58:59;101294.72;;;8.94;100.00
12987;BME280;58897;51.960;5.582;2024-02-21T10:01:26;101287.78;;;8.92;100.00
12987;BME280;58897;51.960;5.582;2024-02-21T10:04:01;101284.41;;;8.99;100.00
12987;BME280;58897;51.960;5.582;2024-02-21T10:06:30;101283.25;;;9.02;100.00
12987;BME280;58897;51.960;5.582;2024-02-21T10:08:57;101268.06;;;9.10;100.00
12987;BME280;58897;51.960;5.582;2024-02-21T10:11:24;101253.84;;;9.18;100.00
12987;BME280;58897;51.960;5.582;2024-02-21T10:14:02;101251.03;;;9.10;100.00
12987;BME280;58897;51.960;5.582;2024-02-21T10:16:29;101257.56;;;9.07;100.00
12987;BME280;58897;51.960;5.582;2024-02-21T10:18:56;101240.84;;;9.04;100.00
12987;BME280;58897;51.960;5.582;2024-02-21T10:21:22;101244.53;;;9.03;100.00
12987;BME280;58897;51.960;5.582;2024-02-21T10:23:50;101237.59;;;8.91;100.00
12987;BME280;58897;51.960;5.582;2024-02-21T10:26:18;101234.75;;;8.92;100.00
12987;BME280;58897;51.960;5.582;2024-02-21T10:28:45;101240.44;;;8.80;100.00
12987;BME280;58897;51.960;5.582;2024-02-21T10:31:27;101224.41;;;8.68;100.00
12987;BME280;58897;51.960;5.582;2024-02-21T10:34:01;101225.84;;;8.73;100.00
12987;BME280;58897;51.960;5.582;2024-02-21T10:36:29;101220.16;;;8.66;100.00
12987;BME280;58897;51.960;5.582;2024-02-21T10:38:56;101218.03;;;8.69;100.00
12987;BME280;58897;51.960;5.582;2024-02-21T10:41:23;101241.41;;;8.79;100.00
12987;BME280;58897;51.960;5.582;2024-02-21T10:43:54;101224.00;;;8.73;100.00
12987;BME280;58897;51.960;5.582;2024-02-21T10:46:23;101214.47;;;8.79;100.00
12987;BME280;58897;51.960;5.582;2024-02-21T10:49:10;101198.59;;;8.66;100.00
12987;BME280;58897;51.960;5.582;2024-02-21T10:51:43;101197.19;;;8.72;100.00
12987;BME280;58897;51.960;5.582;2024-02-21T10:57:05;101168.28;;;8.83;100.00
12987;BME280;58897;51.960;5.582;2024-02-21T10:59:32;101152.41;;;8.71;100.00
12987;BME280;58897;51.960;5.582;2024-02-21T11:01:59;101138.75;;;8.82;100.00
12987;BME280;58897;51.960;5.582;2024-02-21T11:04:26;101132.41;;;8.73;100.00
12987;BME280;58897;51.960;5.582;2024-02-21T11:06:54;101121.03;;;8.79;100.00
12987;BME280;58897;51.960;5.582;2024-02-21T11:09:29;101117.66;;;8.77;100.00
12987;BME280;58897;51.960;5.582;2024-02-21T11:11:58;101114.25;;;8.75;100.00
12987;BME280;58897;51.960;5.582;2024-02-21T11:14:27;101124.88;;;8.77;100.00
12987;BME280;58897;51.960;5.582;2024-02-21T11:16:54;101135.66;;;8.86;100.00
12987;BME280;58897;51.960;5.582;2024-02-21T11:19:26;101157.22;;;8.86;100.00
12987;BME280;58897;51.960;5.582;2024-02-21T11:21:54;101178.75;;;8.86;100.00
12987;BME280;58897;51.960;5.582;2024-02-21T11:24:30;101157.63;;;8.82;100.00
12987;BME280;58897;51.960;5.582;2024-02-21T11:27:12;101145.00;;;8.82;100.00
12987;BME280;58897;51.960;5.582;2024-02-21T11:29:43;101144.28;;;8.90;100.00
12987;BME280;58897;51.960;5.582;2024-02-21T11:32:11;101143.75;;;8.77;100.00
12987;BME280;58897;51.960;5.582;2024-02-21T11:34:38;101125.88;;;8.85;100.00
12987;BME280;58897;51.960;5.582;2024-02-21T11:37:13;101114.53;;;8.82;100.00
12987;BME280;58897;51.960;5.582;2024-02-21T11:39:44;101117.22;;;8.82;100.00
12987;BME280;58897;51.960;5.582;2024-02-21T11:42:10;101118.94;;;8.83;100.00
12987;BME280;58897;51.960;5.582;2024-02-21T11:44:38;101110.28;;;8.79;100.00
12987;BME280;58897;51.960;5.582;2024-02-21T11:47:06;101108.16;;;8.83;100.00
12987;BME280;58897;51.960;5.582;2024-02-21T11:49:46;101096.22;;;8.85;100.00
12987;BME280;58897;51.960;5.582;2024-02-21T11:52:16;101090.41;;;8.90;100.00
12987;BME280;58897;51.960;5.582;2024-02-21T11:54:45;101083.31;;;8.89;100.00
12987;BME280;58897;51.960;5.582;2024-02-21T11:57:12;101066.25;;;8.98;100.00
12987;BME280;58897;51.960;5.582;2024-02-21T11:59:40;101049.50;;;9.04;100.00
12987;BME280;58897;51.960;5.582;2024-02-21T12:02:07;101038.69;;;9.13;100.00
12987;BME280;58897;51.960;5.582;2024-02-21T12:04:34;101031.28;;;9.15;100.00
12987;BME280;58897;51.960;5.582;2024-02-21T12:07:01;101029.81;;;9.30;100.00
12987;BME280;58897;51.960;5.582;2024-02-21T12:09:30;100998.28;;;9.31;100.00
12987;BME280;58897;51.960;5.582;2024-02-21T12:11:58;100982.47;;;9.46;100.00
12987;BME280;58897;51.960;5.582;2024-02-21T12:14:27;100965.97;;;9.66;100.00
12987;BME280;58897;51.960;5.582;2024-02-21T12:16:54;100965.38;;;9.72;100.00
12987;BME280;58897;51.960;5.582;2024-02-21T12:19:21;100952.88;;;9.54;100.00
12987;BME280;58897;51.960;5.582;2024-02-21T12:21:49;100948.66;;;9.51;100.00
12987;BME280;58897;51.960;5.582;2024-02-21T12:24:24;100934.53;;;9.57;100.00
12987;BME280;58897;51.960;5.582;2024-02-21T12:26:54;100928.63;;;9.54;100.00
12987;BME280;58897;51.960;5.582;2024-02-21T12:29:22;100926.13;;;9.60;100.00
12987;BME280;58897;51.960;5.582;2024-02-21T12:31:51;100920.44;;;9.63;100.00
12987;BME280;58897;51.960;5.582;2024-02-21T12:34:18;100922.38;;;9.53;100.00
12987;BME280;58897;51.960;5.582;2024-02-21T12:37:01;100918.50;;;9.56;100.00
12987;BME280;58897;51.960;5.582;2024-02-21T12:39:27;100905.56;;;9.59;100.00
12987;BME280;58897;51.960;5.582;2024-02-21T12:41:55;100906.78;;;9.65;100.00
12987;BME280;58897;51.960;5.582;2024-02-21T12:44:24;100895.59;;;9.60;100.00
12987;BME280;58897;51.960;5.582;2024-02-21T12:46:51;100884.75;;;9.69;100.00
12987;BME280;58897;51.960;5.582;2024-02-21T12:49:20;100866.31;;;9.65;100.00
12987;BME280;58897;51.960;5.582;2024-02-21T12:51:47;100860.00;;;9.74;100.00
12987;BME280;58897;51.960;5.582;2024-02-21T12:54:14;100848.34;;;9.73;100.00
12987;BME280;58897;51.960;5.582;2024-02-21T12:56:41;100846.34;;;9.75;100.00
12987;BME280;58897;51.960;5.582;2024-02-21T12:59:07;100850.91;;;9.75;100.00